Time;durP1;ratioP1;P1;durP2;ratioP2;P2;SDS_P1;SDS_P2;PMS_P1;PMS_P2;Temp;Humidity;BMP_temperature;BMP_pressure;BME280_temperature;BME280_humidity;BME280_pressure;Samples;Min_cycle;Max_cycle;Signal;HPM_P1;HPM_P2
2021/05/26 00:03:39;;;;;;;0.10;0.10;;;;;;;8.16;90.83;101069.72;10618790;27;20016;-68
2021/05/26 00:08:40;;;;;;;0.03;0.03;;;;;;;8.17;90.98;101075.84;10565442;27;20029;-68
2021/05/26 00:13:42;;;;;;;0.00;0.00;;;;;;;8.15;90.95;101062.75;10557920;28;20019;-68
2021/05/26 00:18:43;;;;;;;0.00;0.00;;;;;;;8.14;90.62;101062.88;10571658;28;20023;-68
2021/05/26 00:23:43;;;;;;;0.00;0.00;;;;;;;8.13;90.34;101063.84;10558024;28;20052;-68
2021/05/26 00:28:46;;;;;;;0.00;0.00;;;;;;;8.13;90.40;101056.72;10576556;28;20023;-68
2021/05/26 00:33:46;;;;;;;0.10;0.10;;;;;;;8.16;90.29;101059.09;10558059;28;20037;-68
2021/05/26 00:38:48;;;;;;;0.03;0.03;;;;;;;8.18;90.88;101058.16;10576191;28;20134;-68
2021/05/26 00:43:49;;;;;;;0.10;0.10;;;;;;;8.20;90.58;101050.88;10567919;28;20031;-68
2021/05/26 00:48:49;;;;;;;0.00;0.00;;;;;;;8.21;90.90;101047.25;10576071;28;20024;-68
2021/05/26 00:53:50;;;;;;;0.10;0.10;;;;;;;8.21;90.19;101047.25;10574931;28;20458;-68
2021/05/26 00:58:50;;;;;;;0.10;0.10;;;;;;;8.18;90.56;101048.38;10574776;28;20378;-68
2021/05/26 01:03:50;;;;;;;0.00;0.00;;;;;;;8.19;90.34;101041.25;10575193;28;20016;-68
2021/05/26 01:08:51;;;;;;;0.10;0.10;;;;;;;8.19;90.73;101043.91;10573804;28;20269;-68
2021/05/26 01:13:51;;;;;;;0.00;0.00;;;;;;;8.20;91.44;101037.59;10575451;28;20080;-68
2021/05/26 01:18:52;;;;;;;0.10;0.10;;;;;;;8.21;90.99;101037.47;10569486;28;20304;-68
2021/05/26 01:23:52;;;;;;;0.10;0.10;;;;;;;8.23;91.59;101037.31;10555873;28;20028;-68
2021/05/26 01:28:52;;;;;;;0.10;0.10;;;;;;;8.23;91.05;101037.31;10574858;28;20027;-68
2021/05/26 01:33:53;;;;;;;0.10;0.10;;;;;;;8.25;91.74;101028.25;10576383;28;20327;-68
2021/05/26 01:39:03;;;;;;;0.00;0.00;;;;;;;8.28;91.15;101021.81;10574237;28;20277;-68
2021/05/26 01:44:05;;;;;;;0.10;0.10;;;;;;;8.30;90.87;101030.50;10582163;28;20265;-68
2021/05/26 01:49:06;;;;;;;0.03;0.03;;;;;;;8.31;91.30;101024.19;10582639;28;20024;-68
2021/05/26 01:54:06;;;;;;;0.00;0.00;;;;;;;8.32;91.59;101021.41;10581971;28;20038;-68
2021/05/26 01:59:07;;;;;;;0.00;0.00;;;;;;;8.33;91.25;101022.25;10582280;28;20459;-68
2021/05/26 02:04:07;;;;;;;0.10;0.10;;;;;;;8.37;91.14;101020.97;10572352;28;20034;-68
2021/05/26 02:09:08;;;;;;;0.00;0.00;;;;;;;8.39;91.47;101013.75;10580524;28;20024;-68
2021/05/26 02:14:09;;;;;;;0.10;0.10;;;;;;;8.41;90.92;101008.28;10574533;28;20042;-68
2021/05/26 02:19:09;;;;;;;0.08;0.08;;;;;;;8.42;90.70;101007.34;10558126;28;20391;-68
2021/05/26 02:24:10;;;;;;;0.10;0.10;;;;;;;8.38;90.84;101001.44;10537259;28;20020;-68
2021/05/26 02:29:10;;;;;;;0.00;0.00;;;;;;;8.37;90.74;101003.22;10548542;28;20107;-68
2021/05/26 02:34:10;;;;;;;0.10;0.10;;;;;;;8.33;90.58;100998.38;10547289;27;20020;-68
2021/05/26 02:39:11;;;;;;;0.10;0.10;;;;;;;8.28;91.15;101003.25;10540471;28;20023;-68
2021/05/26 02:44:12;;;;;;;0.00;0.00;;;;;;;8.28;91.16;100995.28;10546964;28;20024;-68
2021/05/26 02:49:13;;;;;;;0.10;0.10;;;;;;;8.28;90.88;100995.28;10546659;28;20020;-68
2021/05/26 02:54:13;;;;;;;0.10;0.10;;;;;;;8.29;90.58;100996.94;10558887;28;20471;-68
2021/05/26 02:59:13;;;;;;;0.10;0.10;;;;;;;8.30;91.03;100993.34;10545474;28;20020;-68
2021/05/26 03:04:14;;;;;;;0.10;0.10;;;;;;;8.32;90.82;100991.38;10560898;28;20019;-68
2021/05/26 03:09:14;;;;;;;0.05;0.05;;;;;;;8.35;90.73;100991.13;10567652;28;20257;-68
2021/05/26 03:14:14;;;;;;;0.10;0.10;;;;;;;8.37;91.20;100987.31;10557045;28;20020;-68
2021/05/26 03:19:15;;;;;;;0.07;0.07;;;;;;;8.40;90.38;100980.91;10547695;28;20031;-68
2021/05/26 03:24:15;;;;;;;0.10;0.10;;;;;;;8.43;90.58;100985.94;10554216;28;20309;-68
2021/05/26 03:29:16;;;;;;;0.03;0.03;;;;;;;8.46;90.20;100976.84;10550357;28;20032;-68
2021/05/26 03:34:16;;;;;;;0.10;0.10;;;;;;;8.47;89.83;100967.94;10571648;28;20031;-68
2021/05/26 03:39:16;;;;;;;0.10;0.10;;;;;;;8.47;90.16;100974.09;10554952;28;20789;-68
2021/05/26 03:44:17;;;;;;;0.00;0.00;;;;;;;8.48;90.54;100962.47;10545126;28;20250;-68
2021/05/26 03:49:17;;;;;;;0.10;0.10;;;;;;;8.49;89.89;100961.47;10533198;28;20024;-68
2021/05/26 03:54:18;;;;;;;0.10;0.10;;;;;;;8.54;89.43;100964.56;10537902;28;20024;-68
2021/05/26 03:59:18;;;;;;;0.10;0.10;;;;;;;8.60;90.00;100965.81;10544990;28;20311;-68
2021/05/26 04:04:18;;;;;;;0.10;0.10;;;;;;;8.64;89.90;100971.66;10533847;28;20363;-68
2021/05/26 04:09:20;;;;;;;0.00;0.00;;;;;;;8.63;89.99;100972.66;10531517;28;20797;-68
2021/05/26 04:14:20;;;;;;;0.10;0.10;;;;;;;8.53;90.47;100965.53;10553182;28;20292;-68
2021/05/26 04:19:21;;;;;;;0.10;0.10;;;;;;;8.52;89.94;100971.84;10540738;28;20020;-68
2021/05/26 04:24:21;;;;;;;0.00;0.00;;;;;;;8.56;89.45;100956.47;10548221;27;20042;-68
2021/05/26 04:29:21;;;;;;;0.10;0.10;;;;;;;8.71;88.23;100962.16;10530105;28;20274;-68
2021/05/26 04:34:22;;;;;;;0.10;0.10;;;;;;;8.77;87.38;100950.94;10543904;28;20081;-68
2021/05/26 04:39:22;;;;;;;0.00;0.00;;;;;;;8.76;87.25;100957.25;10536841;28;20016;-68
2021/05/26 04:44:22;;;;;;;0.10;0.10;;;;;;;8.79;87.62;100956.97;10572719;28;20459;-68
2021/05/26 04:49:23;;;;;;;0.00;0.00;;;;;;;8.80;86.95;100959.47;10540854;28;20024;-68
2021/05/26 04:54:23;;;;;;;0.10;0.10;;;;;;;8.80;87.26;100950.66;10531574;28;20027;-68
2021/05/26 04:59:23;;;;;;;0.10;0.10;;;;;;;8.84;86.85;100946.72;10555931;28;20024;-68
2021/05/26 05:04:24;;;;;;;0.10;0.10;;;;;;;8.97;85.52;100939.28;10546497;28;20322;-68
2021/05/26 05:09:24;;;;;;;0.10;0.10;;;;;;;9.15;84.93;100941.16;10532981;28;20020;-68
2021/05/26 05:14:24;;;;;;;0.10;0.10;;;;;;;9.31;84.29;100941.38;10553517;28;20051;-68
2021/05/26 05:19:25;;;;;;;0.05;0.05;;;;;;;9.35;83.18;100945.41;10541384;27;20098;-68
2021/05/26 05:29:31;;;;;;;0.10;0.10;;;;;;;10.08;80.61;100945.31;10455647;28;20083;-66
2021/05/26 05:34:32;;;;;;;0.10;0.10;;;;;;;10.26;79.86;100944.47;10450662;28;20464;-66
2021/05/26 05:39:32;;;;;;;0.10;0.10;;;;;;;10.34;79.27;100944.56;10417576;28;20353;-67
2021/05/26 05:44:32;;;;;;;0.10;0.10;;;;;;;10.31;80.09;100940.38;10441457;28;20021;-67
2021/05/26 05:49:32;;;;;;;0.10;0.10;;;;;;;10.30;80.27;100937.88;10441316;28;20025;-67
2021/05/26 05:54:33;;;;;;;0.10;0.10;;;;;;;10.78;79.75;100932.03;10441654;28;20033;-67
2021/05/26 05:59:33;;;;;;;0.17;0.17;;;;;;;10.93;78.01;100928.78;10451812;28;20025;-66
2021/05/26 06:04:33;;;;;;;0.10;0.10;;;;;;;10.63;78.06;100920.28;10457866;28;20256;-67
2021/05/26 06:09:34;;;;;;;0.10;0.10;;;;;;;10.62;79.24;100926.63;10445861;28;20030;-66
2021/05/26 06:14:34;;;;;;;0.10;0.10;;;;;;;11.25;77.65;100912.91;10435106;28;20027;-67
2021/05/26 06:19:34;;;;;;;0.10;0.10;;;;;;;11.11;75.69;100905.53;10429427;28;20028;-66
2021/05/26 06:24:34;;;;;;;0.10;0.10;;;;;;;11.01;77.91;100905.66;10456490;28;20024;-68
2021/05/26 06:29:35;;;;;;;0.10;0.10;;;;;;;10.88;78.93;100903.47;10456141;28;20471;-68
2021/05/26 06:34:35;;;;;;;0.10;0.10;;;;;;;10.77;78.65;100900.22;10447617;28;20092;-67
2021/05/26 06:39:35;;;;;;;0.10;0.10;;;;;;;10.63;78.86;100891.00;10415308;28;20071;-66
2021/05/26 06:44:36;;;;;;;0.10;0.10;;;;;;;10.55;80.33;100888.28;10420791;28;20021;-67
2021/05/26 06:49:36;;;;;;;0.10;0.10;;;;;;;10.53;80.20;100893.78;10449449;28;20389;-67
2021/05/26 06:54:36;;;;;;;0.10;0.10;;;;;;;10.68;81.09;100890.53;10444171;28;20021;-67
2021/05/26 06:59:37;;;;;;;0.10;0.10;;;;;;;10.83;78.92;100880.94;10447344;28;20395;-67
2021/05/26 07:04:37;;;;;;;0.10;0.10;;;;;;;11.08;78.26;100888.06;10446055;28;20021;-65
2021/05/26 07:09:37;;;;;;;0.10;0.10;;;;;;;11.21;78.53;100878.75;10416544;28;20069;-67
2021/05/26 07:14:39;;;;;;;0.10;0.10;;;;;;;11.10;77.23;100877.22;10452062;28;20024;-66
2021/05/26 07:19:39;;;;;;;0.10;0.10;;;;;;;11.16;77.78;100873.91;10454041;28;20020;-66
2021/05/26 07:24:39;;;;;;;0.10;0.10;;;;;;;11.18;79.37;100884.41;10453557;28;20021;-66
2021/05/26 07:29:40;;;;;;;0.10;0.10;;;;;;;10.94;80.13;100879.81;10454011;28;20021;-66
2021/05/26 07:34:40;;;;;;;0.10;0.10;;;;;;;10.66;82.66;100880.03;10452622;28;20400;-66
2021/05/26 07:39:40;;;;;;;0.10;0.10;;;;;;;10.53;83.70;100892.91;10429614;28;20688;-66
2021/05/26 07:44:41;;;;;;;0.10;0.10;;;;;;;10.53;84.31;100883.13;10426675;28;20063;-66
2021/05/26 07:49:41;;;;;;;0.10;0.10;;;;;;;10.74;84.43;100881.91;10438232;28;20518;-66
2021/05/26 07:54:42;;;;;;;0.10;0.10;;;;;;;10.65;83.23;100876.53;10412668;28;20064;-67
2021/05/26 07:59:44;;;;;;;0.10;0.10;;;;;;;10.65;83.83;100879.19;10448695;28;20272;-67
2021/05/26 08:04:44;;;;;;;0.10;0.10;;;;;;;10.82;83.23;100880.13;10429131;28;20021;-66
2021/05/26 08:09:45;;;;;;;0.10;0.10;;;;;;;10.97;84.11;100877.69;10437966;28;20032;-67
2021/05/26 08:14:45;;;;;;;0.10;0.10;;;;;;;10.96;82.90;100869.81;10431054;28;20018;-66
2021/05/26 08:19:45;;;;;;;0.10;0.10;;;;;;;11.09;83.03;100854.22;10428665;28;20513;-67
2021/05/26 08:24:46;;;;;;;0.10;0.10;;;;;;;11.74;81.90;100853.50;10435067;28;20028;-67
2021/05/26 08:29:46;;;;;;;0.10;0.10;;;;;;;12.09;80.36;100851.53;10443408;28;20472;-67
2021/05/26 08:34:49;;;;;;;0.10;0.10;;;;;;;12.55;78.64;100849.94;10426605;28;20408;-66
2021/05/26 08:39:49;;;;;;;0.10;0.10;;;;;;;12.55;76.24;100839.25;10433585;28;20104;-67
2021/05/26 08:44:50;;;;;;;0.10;0.10;;;;;;;12.11;77.53;100839.69;10427912;28;20111;-66
2021/05/26 08:49:50;;;;;;;0.10;0.10;;;;;;;11.53;78.00;100829.97;10446023;28;20021;-67
2021/05/26 08:54:50;;;;;;;0.10;0.10;;;;;;;11.16;80.28;100827.75;10439163;28;20028;-67
2021/05/26 08:59:51;;;;;;;0.10;0.10;;;;;;;11.10;81.67;100830.06;10431646;28;20267;-67
2021/05/26 09:04:51;;;;;;;0.10;0.10;;;;;;;11.40;81.60;100819.78;10398051;28;20037;-67
2021/05/26 09:09:56;;;;;;;0.10;0.10;;;;;;;11.70;79.26;100818.31;10396989;28;20351;-67
2021/05/26 09:15:01;;;;;;;;;;;;;;;11.82;77.95;100816.16;10440022;28;20036;-66
2021/05/26 09:20:25;;;;;;;0.15;0.15;;;;;;;12.24;77.71;100815.94;10428324;28;19913;-66
2021/05/26 09:25:26;;;;;;;0.20;0.20;;;;;;;12.62;75.02;100807.31;10442619;28;20536;-64
2021/05/26 09:30:33;;;;;;;0.10;0.10;;;;;;;12.57;72.90;100807.03;10428317;28;20029;-67
2021/05/26 09:35:33;;;;;;;0.10;0.10;;;;;;;12.39;72.74;100804.56;10410578;28;20028;-66
2021/05/26 09:40:38;;;;;;;0.10;0.10;;;;;;;12.37;73.46;100803.91;10438909;28;20024;-67
2021/05/26 09:45:38;;;;;;;0.10;0.10;;;;;;;12.54;73.66;100797.53;10443805;28;20036;-66
2021/05/26 09:50:38;;;;;;;0.10;0.10;;;;;;;12.23;74.39;100795.59;10441634;28;20024;-66
2021/05/26 09:55:44;;;;;;;0.10;0.10;;;;;;;11.53;75.59;100804.13;10441291;28;20040;-67
2021/05/26 10:00:47;;;;;;;0.10;0.10;;;;;;;11.19;78.04;100809.59;10438586;28;20646;-66
2021/05/26 10:05:47;;;;;;;0.17;0.17;;;;;;;11.64;78.21;100807.50;10457082;28;20505;-66
2021/05/26 10:10:48;;;;;;;0.10;0.10;;;;;;;12.67;77.79;100810.31;10432374;28;20024;-66
2021/05/26 10:15:49;;;;;;;0.10;0.10;;;;;;;13.94;72.06;100790.28;10427519;28;20033;-65
2021/05/26 10:20:50;;;;;;;0.10;0.10;;;;;;;14.03;68.39;100791.03;10414278;28;20017;-67
2021/05/26 10:25:53;;;;;;;0.10;0.10;;;;;;;13.66;67.02;100800.72;10416636;28;20396;-67
2021/05/26 10:30:55;;;;;;;0.10;0.10;;;;;;;13.61;69.50;100802.28;10435961;28;20025;-65
2021/05/26 10:35:59;;;;;;;0.10;0.10;;;;;;;13.03;70.32;100791.09;10454238;28;20045;-67
2021/05/26 10:41:01;;;;;;;0.10;0.10;;;;;;;12.99;72.22;100795.97;10408595;28;20486;-67
2021/05/26 10:46:04;;;;;;;0.10;0.10;;;;;;;13.34;71.54;100788.44;10415851;28;20547;-67
2021/05/26 10:51:05;;;;;;;0.10;0.10;;;;;;;13.46;68.49;100783.50;10419126;28;20029;-67
2021/05/26 10:56:06;;;;;;;0.10;0.10;;;;;;;12.70;70.48;100791.25;10414094;28;20065;-67
2021/05/26 11:01:08;;;;;;;0.10;0.10;;;;;;;12.35;76.30;100787.22;10416489;28;20045;-67
2021/05/26 11:06:13;;;;;;;0.10;0.10;;;;;;;12.66;74.38;100774.75;10422246;28;20017;-67
2021/05/26 11:11:25;;;;;;;0.10;0.10;;;;;;;13.55;73.28;100769.03;10426506;28;20036;-67
2021/05/26 11:16:43;;;;;;;0.10;0.10;;;;;;;14.36;70.24;100767.38;10422456;28;20040;-66
2021/05/26 11:22:00;;;;;;;0.10;0.10;;;;;;;14.74;66.78;100761.09;10420920;28;20373;-67
2021/05/26 11:27:02;;;;;;;0.10;0.10;;;;;;;14.79;68.00;100761.38;10424005;23;20124;-67
2021/05/26 11:32:24;;;;;;;0.10;0.10;;;;;;;14.34;63.77;100766.75;10369986;28;20033;-67
2021/05/26 11:37:33;;;;;;;0.10;0.10;;;;;;;13.93;66.61;100764.53;10349870;28;20049;-67
2021/05/26 11:42:34;;;;;;;0.10;0.10;;;;;;;14.51;66.57;100764.69;10386322;28;20211;-66
2021/05/26 11:47:35;;;;;;;0.10;0.10;;;;;;;14.96;65.34;100761.97;10371068;28;20014;-66
2021/05/26 11:52:35;;;;;;;0.10;0.10;;;;;;;15.42;64.62;100750.88;10387315;28;20041;-66
2021/05/26 11:57:40;;;;;;;0.10;0.10;;;;;;;15.46;61.93;100739.56;10366792;28;20022;-66
2021/05/26 12:02:55;;;;;;;0.10;0.10;;;;;;;14.94;63.66;100754.13;10347701;28;20065;-66
2021/05/26 12:07:55;;;;;;;0.10;0.10;;;;;;;14.56;66.95;100750.78;10362268;28;20248;-66
2021/05/26 12:13:02;;;;;;;0.10;0.10;;;;;;;13.96;65.63;100749.91;10365847;28;20017;-65
2021/05/26 12:18:03;;;;;;;0.10;0.10;;;;;;;13.75;68.26;100742.59;10384372;28;20056;-65
2021/05/26 12:23:04;;;;;;;0.10;0.10;;;;;;;13.56;67.71;100742.09;10405243;28;20064;-65
2021/05/26 12:28:16;;;;;;;0.10;0.10;;;;;;;13.54;69.59;100751.31;10405451;28;20056;-66
2021/05/26 12:33:17;;;;;;;0.10;0.10;;;;;;;13.72;68.08;100734.94;10373999;28;20018;-66
2021/05/26 12:38:21;;;;;;;0.10;0.10;;;;;;;14.12;68.29;100728.31;10404497;28;20395;-66
2021/05/26 12:43:24;;;;;;;0.10;0.10;;;;;;;13.82;68.08;100744.38;10405632;28;20041;-66
2021/05/26 12:48:32;;;;;;;0.10;0.10;;;;;;;12.91;73.71;100783.50;10364979;28;20453;-67
2021/05/26 12:53:33;;;;;;;0.10;0.10;;;;;;;12.42;76.16;100777.50;10388656;28;20056;-68
2021/05/26 12:58:42;;;;;;;0.10;0.10;;;;;;;12.54;78.74;100784.16;10389336;28;20108;-68
2021/05/26 13:03:44;;;;;;;0.10;0.10;;;;;;;12.54;77.13;100762.78;10405583;28;20029;-68
2021/05/26 13:08:57;;;;;;;0.10;0.10;;;;;;;12.62;77.67;100749.41;10365950;28;20472;-68
2021/05/26 13:13:57;;;;;;;0.10;0.10;;;;;;;12.92;77.66;100762.94;10364042;28;20075;-68
2021/05/26 13:18:58;;;;;;;0.10;0.10;;;;;;;13.13;76.42;100759.63;10381762;28;20115;-68
2021/05/26 13:23:58;;;;;;;0.10;0.10;;;;;;;13.16;75.89;100753.09;10397078;28;20021;-68
2021/05/26 13:28:58;;;;;;;0.10;0.10;;;;;;;13.23;74.90;100752.19;10386007;28;20033;-68
2021/05/26 13:33:59;;;;;;;0.10;0.10;;;;;;;13.42;73.37;100750.91;10372051;28;20044;-68
2021/05/26 13:38:59;;;;;;;0.10;0.10;;;;;;;13.43;74.82;100755.25;10373659;28;20021;-67
2021/05/26 13:44:00;;;;;;;0.10;0.10;;;;;;;13.34;72.68;100757.16;10391734;28;20108;-67
2021/05/26 13:49:01;;;;;;;0.10;0.10;;;;;;;12.75;73.41;100758.69;10382764;28;20044;-66
2021/05/26 13:54:01;;;;;;;0.10;0.10;;;;;;;12.10;76.89;100763.28;10408878;28;20063;-67
2021/05/26 13:59:02;;;;;;;0.10;0.10;;;;;;;11.46;77.80;100755.13;10398448;28;21423;-68
2021/05/26 14:04:02;;;;;;;0.10;0.10;;;;;;;11.16;80.54;100756.59;10397529;28;20261;-67
2021/05/26 14:09:03;;;;;;;0.10;0.10;;;;;;;11.07;81.39;100746.94;10378123;28;20029;-68
2021/05/26 14:14:04;;;;;;;0.10;0.10;;;;;;;11.25;82.62;100736.94;10411193;28;20021;-68
2021/05/26 14:19:04;;;;;;;0.10;0.10;;;;;;;11.74;82.08;100722.75;10411708;28;20024;-67
2021/05/26 14:24:06;;;;;;;0.10;0.10;;;;;;;12.20;81.42;100734.53;10410157;28;20108;-67
2021/05/26 14:29:06;;;;;;;0.10;0.10;;;;;;;12.55;79.39;100724.38;10375813;28;20022;-67
2021/05/26 14:34:07;;;;;;;0.10;0.10;;;;;;;12.65;76.28;100722.31;10400332;28;20014;-67
2021/05/26 14:39:17;;;;;;;0.10;0.10;;;;;;;12.64;76.09;100725.97;10390685;28;20025;-67
2021/05/26 14:44:17;;;;;;;0.10;0.10;;;;;;;12.62;76.13;100716.47;10368851;28;20085;-66
2021/05/26 14:49:17;;;;;;;0.10;0.10;;;;;;;12.59;76.92;100709.63;10397960;28;20021;-67
2021/05/26 14:54:18;;;;;;;0.10;0.10;;;;;;;12.40;75.36;100704.75;10369744;28;20304;-67
2021/05/26 14:59:18;;;;;;;0.10;0.10;;;;;;;12.33;77.24;100711.78;10368494;28;20485;-66
2021/05/26 15:04:18;;;;;;;0.10;0.10;;;;;;;12.46;75.13;100706.72;10375711;28;20021;-67
2021/05/26 15:09:19;;;;;;;0.10;0.10;;;;;;;12.70;74.30;100711.09;10369545;28;20025;-67
2021/05/26 15:14:19;;;;;;;0.10;0.10;;;;;;;12.83;72.98;100702.50;10368624;28;20124;-67
2021/05/26 15:19:19;;;;;;;0.10;0.10;;;;;;;13.19;73.07;100710.78;10368940;28;20032;-67
2021/05/26 15:24:19;;;;;;;0.10;0.10;;;;;;;13.33;71.72;100698.50;10369231;28;20029;-67
2021/05/26 15:29:20;;;;;;;0.10;0.10;;;;;;;13.27;72.91;100681.31;10369177;28;20033;-66
2021/05/26 15:34:20;;;;;;;0.10;0.10;;;;;;;13.36;72.82;100682.91;10375981;28;20049;-68
2021/05/26 15:39:20;;;;;;;0.10;0.10;;;;;;;13.31;70.49;100682.59;10387797;28;20045;-68
2021/05/26 15:44:21;;;;;;;0.10;0.10;;;;;;;13.20;70.62;100679.50;10404009;28;20321;-68
2021/05/26 15:49:21;;;;;;;0.10;0.10;;;;;;;13.13;70.06;100690.09;10396790;28;20440;-68
2021/05/26 15:54:22;;;;;;;0.10;0.10;;;;;;;13.43;71.69;100690.19;10366317;28;20076;-68
2021/05/26 15:59:22;;;;;;;0.10;0.10;;;;;;;13.61;70.26;100698.72;10368527;28;20484;-68
2021/05/26 16:04:23;;;;;;;0.10;0.10;;;;;;;13.84;68.41;100704.00;10379002;28;20488;-70
2021/05/26 16:09:23;;;;;;;0.10;0.10;;;;;;;13.88;66.11;100699.97;10376218;28;20060;-67
2021/05/26 16:14:24;;;;;;;0.10;0.10;;;;;;;13.86;66.66;100703.84;10364757;28;20080;-67
2021/05/26 16:19:24;;;;;;;0.10;0.10;;;;;;;13.80;65.17;100703.56;10365361;28;20772;-68
2021/05/26 16:24:24;;;;;;;0.10;0.10;;;;;;;13.84;64.93;100708.53;10392657;28;20113;-67
2021/05/26 16:29:25;;;;;;;0.10;0.10;;;;;;;13.79;64.83;100699.22;10377644;28;20489;-67
2021/05/26 16:34:27;;;;;;;0.10;0.10;;;;;;;13.66;62.83;100696.34;10347694;28;20014;-67
2021/05/26 16:39:27;;;;;;;0.00;0.00;;;;;;;13.41;62.96;100703.78;10366163;28;20433;-68
2021/05/26 16:44:28;;;;;;;0.10;0.10;;;;;;;13.19;64.77;100705.41;10380525;28;20083;-67
2021/05/26 16:49:28;;;;;;;0.10;0.10;;;;;;;12.99;65.21;100699.72;10400239;28;20025;-67
2021/05/26 16:54:29;;;;;;;0.10;0.10;;;;;;;12.92;66.11;100698.78;10387565;28;20018;-67
2021/05/26 16:59:32;;;;;;;0.10;0.10;;;;;;;12.82;63.48;100704.31;10381072;28;20117;-67
2021/05/26 17:04:32;;;;;;;0.10;0.10;;;;;;;12.68;63.94;100705.94;10359306;28;20319;-67
2021/05/26 17:09:33;;;;;;;0.13;0.13;;;;;;;12.55;65.13;100703.00;10375572;28;20444;-67
2021/05/26 17:14:33;;;;;;;0.10;0.10;;;;;;;12.47;65.71;100700.34;10373883;28;20626;-67
2021/05/26 17:19:33;;;;;;;0.10;0.10;;;;;;;12.40;66.35;100704.75;10374348;28;20795;-67
2021/05/26 17:24:34;;;;;;;0.10;0.10;;;;;;;12.23;65.92;100706.66;10374388;28;20048;-67
2021/05/26 17:29:35;;;;;;;0.20;0.20;;;;;;;12.11;66.70;100702.69;10379287;28;20026;-67
2021/05/26 17:34:35;;;;;;;0.10;0.10;;;;;;;12.06;66.94;100708.53;10373250;28;20038;-67
2021/05/26 17:39:36;;;;;;;0.10;0.10;;;;;;;12.02;68.70;100711.72;10384130;28;20021;-66
2021/05/26 17:44:36;;;;;;;0.10;0.10;;;;;;;11.90;69.29;100703.25;10413655;28;20029;-67
2021/05/26 17:49:37;;;;;;;0.10;0.10;;;;;;;11.77;68.26;100703.75;10412976;28;20021;-67
2021/05/26 17:54:37;;;;;;;0.10;0.10;;;;;;;11.71;69.42;100699.09;10413598;28;20032;-67
2021/05/26 17:59:39;;;;;;;0.10;0.10;;;;;;;11.54;70.87;100692.94;10412481;28;20176;-66
2021/05/26 18:04:41;;;;;;;0.10;0.10;;;;;;;11.43;71.39;100695.94;10354864;28;20124;-66
2021/05/26 18:09:41;;;;;;;0.10;0.10;;;;;;;11.36;71.16;100705.63;10372638;28;20040;-66
2021/05/26 18:14:43;;;;;;;0.10;0.10;;;;;;;11.25;73.72;100714.78;10371562;28;20102;-67
2021/05/26 18:19:43;;;;;;;0.10;0.10;;;;;;;11.05;75.91;100709.78;10402475;28;20104;-67
2021/05/26 18:24:44;;;;;;;0.10;0.10;;;;;;;10.87;77.26;100712.56;10412348;28;20502;-67
2021/05/26 18:29:44;;;;;;;0.10;0.10;;;;;;;10.73;78.08;100710.53;10412475;28;20059;-67
2021/05/26 18:34:44;;;;;;;0.10;0.10;;;;;;;10.58;79.33;100710.34;10402956;28;20468;-67
2021/05/26 18:39:45;;;;;;;0.10;0.10;;;;;;;10.49;79.68;100710.47;10369352;28;20280;-67
2021/05/26 18:44:45;;;;;;;0.10;0.10;;;;;;;10.40;80.21;100705.13;10368400;28;20022;-67
2021/05/26 18:49:50;;;;;;;0.10;0.10;;;;;;;10.35;81.46;100704.75;10406867;28;20040;-67
2021/05/26 18:54:51;;;;;;;0.10;0.10;;;;;;;10.29;80.95;100710.72;10369630;28;20022;-67
2021/05/26 18:59:51;;;;;;;0.10;0.10;;;;;;;10.22;81.20;100704.38;10371149;28;20134;-67
2021/05/26 19:04:52;;;;;;;0.10;0.10;;;;;;;10.18;81.49;100717.16;10368608;28;20022;-67
2021/05/26 19:09:52;;;;;;;0.10;0.10;;;;;;;10.13;82.94;100711.47;10368958;28;20025;-67
2021/05/26 19:14:55;;;;;;;0.10;0.10;;;;;;;10.07;83.62;100698.81;10350152;28;20491;-67
2021/05/26 19:19:55;;;;;;;0.10;0.10;;;;;;;10.01;83.60;100709.25;10367200;28;20121;-67
2021/05/26 19:24:57;;;;;;;0.10;0.10;;;;;;;9.91;84.92;100715.50;10373197;28;20506;-67
2021/05/26 19:30:00;;;;;;;0.10;0.10;;;;;;;9.84;85.19;100727.78;10349388;28;20041;-67
2021/05/26 19:35:00;;;;;;;0.10;0.10;;;;;;;9.81;86.22;100725.44;10366313;28;20029;-67
2021/05/26 19:40:00;;;;;;;0.10;0.10;;;;;;;9.73;86.41;100726.19;10364148;28;20428;-67
2021/05/26 19:45:03;;;;;;;0.10;0.10;;;;;;;9.70;87.45;100731.84;10371612;28;20261;-67
2021/05/26 19:50:06;;;;;;;0.05;0.05;;;;;;;9.62;87.77;100731.78;10381331;28;20129;-67
2021/05/26 19:55:07;;;;;;;0.10;0.10;;;;;;;9.55;88.00;100737.88;10353256;28;20026;-68
2021/05/26 20:00:09;;;;;;;0.10;0.10;;;;;;;9.49;89.34;100736.69;10384611;28;20034;-68
2021/05/26 20:05:10;;;;;;;0.00;0.00;;;;;;;9.45;89.27;100736.16;10405162;28;20025;-68
2021/05/26 20:10:12;;;;;;;0.10;0.10;;;;;;;9.42;89.23;100739.09;10509155;22;20129;-67
2021/05/26 20:15:15;;;;;;;0.10;0.10;;;;;;;9.39;90.08;100733.25;10596778;27;20019;-66
2021/05/26 20:20:17;;;;;;;0.10;0.10;;;;;;;9.35;90.00;100727.41;10578021;27;20046;-66
2021/05/26 20:25:19;;;;;;;0.00;0.00;;;;;;;9.32;90.01;100727.72;10576985;28;20055;-66
2021/05/26 20:30:19;;;;;;;0.10;0.10;;;;;;;9.29;89.96;100733.34;10555595;28;20224;-66
2021/05/26 20:35:20;;;;;;;0.10;0.10;;;;;;;9.26;89.96;100736.31;10575475;28;20565;-66
2021/05/26 20:40:20;;;;;;;0.10;0.10;;;;;;;9.26;90.59;100736.31;10573931;28;20030;-66
2021/05/26 20:45:21;;;;;;;0.10;0.10;;;;;;;9.25;90.20;100735.47;10575986;28;20261;-65
2021/05/26 20:50:21;;;;;;;0.10;0.10;;;;;;;9.25;90.82;100751.44;10574402;28;20027;-66
2021/05/26 20:55:22;;;;;;;0.10;0.10;;;;;;;9.24;91.35;100746.25;10575546;28;20080;-65
2021/05/26 21:00:25;;;;;;;0.10;0.10;;;;;;;9.18;92.17;100757.50;10575344;28;20498;-65
2021/05/26 21:05:25;;;;;;;0.10;0.10;;;;;;;9.14;92.41;100751.66;10575673;28;20019;-65
2021/05/26 21:10:27;;;;;;;0.10;0.10;;;;;;;9.11;92.34;100746.66;10574084;28;20030;-66
2021/05/26 21:15:27;;;;;;;0.10;0.10;;;;;;;9.11;91.84;100751.13;10575316;28;20038;-66
2021/05/26 21:20:28;;;;;;;0.10;0.10;;;;;;;9.11;91.39;100751.13;10574729;28;20508;-66
2021/05/26 21:25:28;;;;;;;0.10;0.10;;;;;;;9.11;91.43;100757.28;10575631;28;20072;-66
2021/05/26 21:30:29;;;;;;;0.10;0.10;;;;;;;9.09;91.81;100758.41;10574494;28;20276;-67
2021/05/26 21:35:30;;;;;;;0.10;0.10;;;;;;;9.07;92.24;100755.88;10571813;28;20032;-67
2021/05/26 21:40:32;;;;;;;0.10;0.10;;;;;;;9.02;91.65;100745.72;10565964;28;20482;-67
2021/05/26 21:45:32;;;;;;;0.10;0.10;;;;;;;9.05;91.79;100756.06;10574741;28;20358;-66
2021/05/26 21:50:33;;;;;;;0.10;0.10;;;;;;;9.06;91.71;100746.25;10568580;28;20020;-66
2021/05/26 21:55:33;;;;;;;0.10;0.10;;;;;;;9.05;91.70;100744.59;10582439;28;20140;-66
2021/05/26 22:00:34;;;;;;;0.10;0.10;;;;;;;9.04;92.02;100746.38;10582300;28;20081;-66
2021/05/26 22:05:35;;;;;;;0.10;0.10;;;;;;;9.04;91.82;100749.06;10582783;28;20755;-66
2021/05/26 22:10:37;;;;;;;0.10;0.10;;;;;;;9.05;92.19;100749.91;10582771;28;20033;-67
2021/05/26 22:15:38;;;;;;;0.10;0.10;;;;;;;9.05;91.69;100748.09;10581249;28;20020;-66
2021/05/26 22:20:38;;;;;;;0.10;0.10;;;;;;;9.05;91.69;100750.75;10582842;28;20035;-67
2021/05/26 22:25:39;;;;;;;0.10;0.10;;;;;;;9.04;91.91;100741.06;10582822;28;20024;-67
2021/05/26 22:30:39;;;;;;;0.10;0.10;;;;;;;9.06;92.11;100744.44;10582065;28;20063;-66
2021/05/26 22:35:39;;;;;;;0.10;0.10;;;;;;;9.07;92.55;100737.28;10582614;28;20641;-67
2021/05/26 22:40:40;;;;;;;0.10;0.10;;;;;;;9.03;92.19;100744.72;10581474;28;20384;-66
2021/05/26 22:46:10;;;;;;;0.10;0.10;;;;;;;9.03;92.31;100742.06;10582275;28;20385;-65
2021/05/26 22:51:11;;;;;;;0.10;0.10;;;;;;;9.04;92.08;100749.06;10581270;28;20015;-67
2021/05/26 22:56:11;;;;;;;0.10;0.10;;;;;;;9.04;92.16;100749.06;10581920;28;20467;-66
2021/05/26 23:01:11;;;;;;;0.10;0.10;;;;;;;9.03;92.48;100739.41;10580926;28;20028;-67
2021/05/26 23:06:12;;;;;;;0.10;0.10;;;;;;;8.99;92.35;100746.03;10579822;28;20011;-66
2021/05/26 23:11:13;;;;;;;0.10;0.10;;;;;;;8.97;92.81;100748.00;10580610;28;20035;-66
2021/05/26 23:16:15;;;;;;;0.10;0.10;;;;;;;8.98;92.94;100754.97;10554134;28;20031;-66
2021/05/26 23:21:15;;;;;;;0.10;0.10;;;;;;;8.98;93.22;100747.00;10545594;28;20016;-66